sensor_id;sensor_type;location;lat;lon;timestamp;pressure;altitude;pressure_sealevel;temperature;humidity
42385;BME280;28042;43.986;22.860;2023-05-10T00:00:50;101753.69;;;10.19;100.00
42385;BME280;28042;43.986;22.860;2023-05-10T00:03:16;101752.00;;;10.18;100.00
42385;BME280;28042;43.986;22.860;2023-05-10T00:05:41;101761.88;;;10.19;100.00
42385;BME280;28042;43.986;22.860;2023-05-10T00:08:07;101747.03;;;10.13;100.00
42385;BME280;28042;43.986;22.860;2023-05-10T00:10:32;101750.44;;;10.15;100.00
42385;BME280;28042;43.986;22.860;2023-05-10T00:12:57;101741.41;;;10.15;100.00
42385;BME280;28042;43.986;22.860;2023-05-10T00:15:23;101744.66;;;10.10;100.00
42385;BME280;28042;43.986;22.860;2023-05-10T00:17:48;101740.56;;;10.06;100.00
42385;BME280;28042;43.986;22.860;2023-05-10T00:20:13;101732.91;;;10.02;100.00
42385;BME280;28042;43.986;22.860;2023-05-10T00:22:39;101736.13;;;9.97;100.00
42385;BME280;28042;43.986;22.860;2023-05-10T00:25:04;101732.22;;;9.91;100.00
42385;BME280;28042;43.986;22.860;2023-05-10T00:27:30;101733.06;;;9.92;100.00
42385;BME280;28042;43.986;22.860;2023-05-10T00:29:55;101734.25;;;9.98;100.00
42385;BME280;28042;43.986;22.860;2023-05-10T00:32:21;101733.22;;;9.99;100.00
42385;BME280;28042;43.986;22.860;2023-05-10T00:34:46;101729.16;;;10.03;100.00
42385;BME280;28042;43.986;22.860;2023-05-10T00:37:11;101731.19;;;9.93;100.00
42385;BME280;28042;43.986;22.860;2023-05-10T00:39:37;101729.13;;;9.86;100.00
42385;BME280;28042;43.986;22.860;2023-05-10T00:42:02;101730.81;;;9.87;100.00
42385;BME280;28042;43.986;22.860;2023-05-10T00:44:27;101731.50;;;9.81;100.00
42385;BME280;28042;43.986;22.860;2023-05-10T00:46:53;101727.91;;;9.81;100.00
42385;BME280;28042;43.986;22.860;2023-05-10T00:49:18;101721.59;;;9.72;100.00
42385;BME280;28042;43.986;22.860;2023-05-10T00:51:44;101721.94;;;9.69;100.00
42385;BME280;28042;43.986;22.860;2023-05-10T00:54:10;101727.59;;;9.76;100.00
42385;BME280;28042;43.986;22.860;2023-05-10T00:56:36;101721.47;;;9.82;100.00
42385;BME280;28042;43.986;22.860;2023-05-10T00:59:02;101719.22;;;9.77;100.00
42385;BME280;28042;43.986;22.860;2023-05-10T01:01:28;101727.91;;;9.73;100.00
42385;BME280;28042;43.986;22.860;2023-05-10T01:03:54;101722.63;;;9.71;100.00
42385;BME280;28042;43.986;22.860;2023-05-10T01:06:19;101728.75;;;9.65;100.00
42385;BME280;28042;43.986;22.860;2023-05-10T01:08:44;101723.81;;;9.69;100.00
42385;BME280;28042;43.986;22.860;2023-05-10T01:11:10;101716.16;;;9.72;100.00
42385;BME280;28042;43.986;22.860;2023-05-10T01:13:38;101720.03;;;9.61;100.00
42385;BME280;28042;43.986;22.860;2023-05-10T01:16:06;101718.16;;;9.54;100.00
42385;BME280;28042;43.986;22.860;2023-05-10T01:18:49;101709.13;;;9.53;100.00
42385;BME280;28042;43.986;22.860;2023-05-10T01:24:15;101712.66;;;9.38;100.00
42385;BME280;28042;43.986;22.860;2023-05-10T01:29:19;101716.56;;;9.35;100.00
42385;BME280;28042;43.986;22.860;2023-05-10T01:37:13;101713.47;;;9.22;100.00
42385;BME280;28042;43.986;22.860;2023-05-10T01:39:44;101717.91;;;9.23;100.00
42385;BME280;28042;43.986;22.860;2023-05-10T01:42:11;101710.25;;;9.26;100.00
42385;BME280;28042;43.986;22.860;2023-05-10T01:49:57;101700.00;;;9.20;100.00
42385;BME280;28042;43.986;22.860;2023-05-10T01:52:26;101696.94;;;9.15;100.00
42385;BME280;28042;43.986;22.860;2023-05-10T01:55:16;101696.59;;;9.18;100.00
42385;BME280;28042;43.986;22.860;2023-05-10T01:57:40;101699.31;;;9.18;100.00
42385;BME280;28042;43.986;22.860;2023-05-10T02:00:07;101702.88;;;9.19;100.00
42385;BME280;28042;43.986;22.860;2023-05-10T02:02:35;101695.91;;;9.16;100.00
42385;BME280;28042;43.986;22.860;2023-05-10T02:05:02;101694.56;;;9.20;100.00
42385;BME280;28042;43.986;22.860;2023-05-10T02:07:28;101689.97;;;9.21;100.00
42385;BME280;28042;43.986;22.860;2023-05-10T02:09:54;101690.47;;;9.16;100.00
42385;BME280;28042;43.986;22.860;2023-05-10T02:12:20;101689.66;;;9.24;100.00
42385;BME280;28042;43.986;22.860;2023-05-10T02:14:47;101692.38;;;9.24;100.00
42385;BME280;28042;43.986;22.860;2023-05-10T02:17:13;101692.34;;;9.16;100.00
42385;BME280;28042;43.986;22.860;2023-05-10T02:19:40;101699.47;;;9.17;100.00
42385;BME280;28042;43.986;22.860;2023-05-10T02:22:06;101690.63;;;9.15;100.00
42385;BME280;28042;43.986;22.860;2023-05-10T02:24:33;101692.47;;;9.06;100.00
42385;BME280;28042;43.986;22.860;2023-05-10T02:27:00;101688.72;;;9.07;100.00
42385;BME280;28042;43.986;22.860;2023-05-10T02:29:27;101692.78;;;9.03;100.00
42385;BME280;28042;43.986;22.860;2023-05-10T02:31:54;101688.72;;;9.07;100.00
42385;BME280;28042;43.986;22.860;2023-05-10T02:34:21;101683.91;;;8.93;100.00
42385;BME280;28042;43.986;22.860;2023-05-10T02:36:47;101692.59;;;8.96;100.00
42385;BME280;28042;43.986;22.860;2023-05-10T02:39:12;101685.09;;;8.90;100.00
42385;BME280;28042;43.986;22.860;2023-05-10T02:41:39;101691.00;;;8.86;100.00
42385;BME280;28042;43.986;22.860;2023-05-10T02:44:06;101695.91;;;8.82;100.00
42385;BME280;28042;43.986;22.860;2023-05-10T02:46:32;101697.63;;;8.83;100.00
42385;BME280;28042;43.986;22.860;2023-05-10T02:48:58;101684.88;;;8.84;100.00
42385;BME280;28042;43.986;22.860;2023-05-10T02:51:27;101690.34;;;8.92;100.00
42385;BME280;28042;43.986;22.860;2023-05-10T02:53:56;101684.19;;;8.82;100.00
42385;BME280;28042;43.986;22.860;2023-05-10T02:56:28;101694.38;;;8.80;100.00
42385;BME280;28042;43.986;22.860;2023-05-10T02:58:56;101691.34;;;8.83;100.00
42385;BME280;28042;43.986;22.860;2023-05-10T03:01:22;101693.69;;;8.77;100.00
42385;BME280;28042;43.986;22.860;2023-05-10T03:03:47;101687.06;;;8.80;100.00
42385;BME280;28042;43.986;22.860;2023-05-10T03:06:12;101691.34;;;8.83;100.00
42385;BME280;28042;43.986;22.860;2023-05-10T03:08:38;101692.72;;;8.87;100.00
42385;BME280;28042;43.986;22.860;2023-05-10T03:13:32;101693.44;;;8.97;100.00
42385;BME280;28042;43.986;22.860;2023-05-10T03:16:35;101696.34;;;8.95;100.00
42385;BME280;28042;43.986;22.860;2023-05-10T03:18:56;101688.13;;;8.87;100.00
42385;BME280;28042;43.986;22.860;2023-05-10T03:21:27;101690.69;;;8.89;100.00
42385;BME280;28042;43.986;22.860;2023-05-10T03:24:02;101687.28;;;8.87;100.00
42385;BME280;28042;43.986;22.860;2023-05-10T03:26:30;101693.59;;;8.87;100.00
42385;BME280;28042;43.986;22.860;2023-05-10T03:28:56;101690.69;;;8.89;100.00
42385;BME280;28042;43.986;22.860;2023-05-10T03:31:24;101692.72;;;8.87;100.00
42385;BME280;28042;43.986;22.860;2023-05-10T03:33:49;101688.63;;;8.83;100.00
42385;BME280;28042;43.986;22.860;2023-05-10T03:36:15;101693.41;;;8.89;100.00
42385;BME280;28042;43.986;22.860;2023-05-10T03:38:41;101691.38;;;8.91;100.00
42385;BME280;28042;43.986;22.860;2023-05-10T03:41:06;101689.00;;;8.88;100.00
42385;BME280;28042;43.986;22.860;2023-05-10T03:43:32;101697.28;;;8.78;100.00
42385;BME280;28042;43.986;22.860;2023-05-10T03:45:57;101694.72;;;8.85;100.00
42385;BME280;28042;43.986;22.860;2023-05-10T03:48:22;101689.28;;;8.85;100.00
42385;BME280;28042;43.986;22.860;2023-05-10T03:50:48;101688.28;;;8.86;100.00
42385;BME280;28042;43.986;22.860;2023-05-10T03:53:14;101684.53;;;8.78;100.00
42385;BME280;28042;43.986;22.860;2023-05-10T03:55:39;101696.44;;;8.86;100.00
42385;BME280;28042;43.986;22.860;2023-05-10T03:58:05;101704.25;;;8.81;100.00
42385;BME280;28042;43.986;22.860;2023-05-10T04:00:30;101689.66;;;8.90;100.00
42385;BME280;28042;43.986;22.860;2023-05-10T04:02:56;101691.75;;;8.96;100.00
42385;BME280;28042;43.986;22.860;2023-05-10T04:05:22;101702.63;;;8.96;100.00
42385;BME280;28042;43.986;22.860;2023-05-10T04:07:47;101703.78;;;8.93;100.00
42385;BME280;28042;43.986;22.860;2023-05-10T04:10:14;101700.19;;;8.85;100.00
42385;BME280;28042;43.986;22.860;2023-05-10T04:12:41;101709.56;;;8.90;100.00
42385;BME280;28042;43.986;22.860;2023-05-10T04:15:06;101706.16;;;8.88;100.00
42385;BME280;28042;43.986;22.860;2023-05-10T04:17:32;101702.94;;;8.93;100.00
42385;BME280;28042;43.986;22.860;2023-05-10T04:19:57;101709.66;;;9.06;100.00
42385;BME280;28042;43.986;22.860;2023-05-10T04:22:22;101708.13;;;9.04;100.00
42385;BME280;28042;43.986;22.860;2023-05-10T04:24:48;101710.09;;;8.94;100.00
42385;BME280;28042;43.986;22.860;2023-05-10T04:27:13;101709.44;;;9.00;100.00
42385;BME280;28042;43.986;22.860;2023-05-10T04:29:39;101711.03;;;9.11;100.00
42385;BME280;28042;43.986;22.860;2023-05-10T04:32:04;101709.72;;;9.23;100.00
42385;BME280;28042;43.986;22.860;2023-05-10T04:34:29;101712.31;;;9.32;100.00
42385;BME280;28042;43.986;22.860;2023-05-10T04:36:55;101711.94;;;9.27;100.00
42385;BME280;28042;43.986;22.860;2023-05-10T04:39:20;101706.19;;;9.30;100.00
42385;BME280;28042;43.986;22.860;2023-05-10T04:41:45;101707.22;;;9.38;100.00
42385;BME280;28042;43.986;22.860;2023-05-10T04:44:11;101695.31;;;9.47;100.00
42385;BME280;28042;43.986;22.860;2023-05-10T04:46:36;101702.13;;;9.43;100.00
42385;BME280;28042;43.986;22.860;2023-05-10T04:49:01;101699.41;;;9.43;100.00
42385;BME280;28042;43.986;22.860;2023-05-10T04:51:27;101693.47;;;9.55;100.00
42385;BME280;28042;43.986;22.860;2023-05-10T04:53:52;101696.75;;;9.67;100.00
42385;BME280;28042;43.986;22.860;2023-05-10T04:56:17;101696.75;;;9.67;100.00
42385;BME280;28042;43.986;22.860;2023-05-10T04:58:43;101693.69;;;9.78;100.00
42385;BME280;28042;43.986;22.860;2023-05-10T05:01:11;101694.38;;;9.80;100.00
42385;BME280;28042;43.986;22.860;2023-05-10T05:03:36;101695.56;;;9.86;100.00
42385;BME280;28042;43.986;22.860;2023-05-10T05:06:02;101695.72;;;9.76;100.00
42385;BME280;28042;43.986;22.860;2023-05-10T05:08:27;101692.69;;;9.87;100.00
42385;BME280;28042;43.986;22.860;2023-05-10T05:10:52;101697.47;;;10.02;100.00
42385;BME280;28042;43.986;22.860;2023-05-10T05:13:18;101701.53;;;10.06;100.00
42385;BME280;28042;43.986;22.860;2023-05-10T05:15:43;101693.38;;;10.14;100.00
42385;BME280;28042;43.986;22.860;2023-05-10T05:18:09;101693.41;;;10.22;100.00
42385;BME280;28042;43.986;22.860;2023-05-10T05:20:34;101695.06;;;10.15;100.00
42385;BME280;28042;43.986;22.860;2023-05-10T05:23:00;101697.13;;;10.21;100.00
42385;BME280;28042;43.986;22.860;2023-05-10T05:25:25;101706.34;;;10.28;100.00
42385;BME280;28042;43.986;22.860;2023-05-10T05:27:50;101696.44;;;10.19;100.00
42385;BME280;28042;43.986;22.860;2023-05-10T05:30:16;101698.81;;;10.14;100.00
42385;BME280;28042;43.986;22.860;2023-05-10T05:32:41;101707.03;;;10.22;100.00
42385;BME280;28042;43.986;22.860;2023-05-10T05:35:06;101698.66;;;10.32;100.00
42385;BME280;28042;43.986;22.860;2023-05-10T05:37:32;101700.22;;;10.42;100.00
42385;BME280;28042;43.986;22.860;2023-05-10T05:39:57;101698.16;;;10.53;100.00
42385;BME280;28042;43.986;22.860;2023-05-10T05:42:22;101696.38;;;10.76;100.00
42385;BME280;28042;43.986;22.860;2023-05-10T05:44:48;101696.34;;;10.92;100.00
42385;BME280;28042;43.986;22.860;2023-05-10T05:47:13;101696.03;;;10.87;100.00
42385;BME280;28042;43.986;22.860;2023-05-10T05:49:39;101688.47;;;10.97;100.00
42385;BME280;28042;43.986;22.860;2023-05-10T05:52:04;101695.31;;;10.93;100.00
42385;BME280;28042;43.986;22.860;2023-05-10T05:54:30;101689.19;;;10.91;100.00
42385;BME280;28042;43.986;22.860;2023-05-10T05:56:56;101698.78;;;10.79;100.00
42385;BME280;28042;43.986;22.860;2023-05-10T05:59:22;101688.22;;;10.60;100.00
42385;BME280;28042;43.986;22.860;2023-05-10T06:01:47;101693.53;;;10.69;100.00
42385;BME280;28042;43.986;22.860;2023-05-10T06:04:13;101688.56;;;10.73;100.00
42385;BME280;28042;43.986;22.860;2023-05-10T06:06:38;101692.28;;;10.88;100.00
42385;BME280;28042;43.986;22.860;2023-05-10T06:09:03;101688.72;;;10.80;100.00
42385;BME280;28042;43.986;22.860;2023-05-10T06:11:29;101689.81;;;11.01;100.00
42385;BME280;28042;43.986;22.860;2023-05-10T06:13:55;101686.84;;;11.19;100.00
42385;BME280;28042;43.986;22.860;2023-05-10T06:16:21;101704.09;;;11.12;100.00
42385;BME280;28042;43.986;22.860;2023-05-10T06:18:46;101700.75;;;10.93;100.00
42385;BME280;28042;43.986;22.860;2023-05-10T06:21:11;101692.91;;;10.98;100.00
42385;BME280;28042;43.986;22.860;2023-05-10T06:23:37;101700.91;;;11.00;100.00
42385;BME280;28042;43.986;22.860;2023-05-10T06:26:02;101706.16;;;11.10;100.00
42385;BME280;28042;43.986;22.860;2023-05-10T06:28:28;101702.88;;;11.22;100.00
42385;BME280;28042;43.986;22.860;2023-05-10T06:30:53;101711.19;;;11.29;100.00
42385;BME280;28042;43.986;22.860;2023-05-10T06:33:18;101714.91;;;11.44;100.00
42385;BME280;28042;43.986;22.860;2023-05-10T06:35:44;101712.06;;;11.60;100.00
42385;BME280;28042;43.986;22.860;2023-05-10T06:38:09;101713.88;;;11.76;100.00
42385;BME280;28042;43.986;22.860;2023-05-10T06:40:34;101716.41;;;11.78;100.00
42385;BME280;28042;43.986;22.860;2023-05-10T06:43:01;101714.94;;;11.67;100.00
42385;BME280;28042;43.986;22.860;2023-05-10T06:45:26;101703.44;;;11.80;100.00
42385;BME280;28042;43.986;22.860;2023-05-10T06:47:51;101707.81;;;11.58;100.00
42385;BME280;28042;43.986;22.860;2023-05-10T06:50:17;101711.03;;;11.61;100.00
42385;BME280;28042;43.986;22.860;2023-05-10T06:52:43;101706.50;;;11.46;100.00
42385;BME280;28042;43.986;22.860;2023-05-10T06:55:08;101697.69;;;11.67;100.00
42385;BME280;28042;43.986;22.860;2023-05-10T06:57:34;101703.44;;;11.80;100.00
42385;BME280;28042;43.986;22.860;2023-05-10T07:00:00;101702.97;;;11.99;100.00
42385;BME280;28042;43.986;22.860;2023-05-10T07:02:25;101705.28;;;12.10;100.00
42385;BME280;28042;43.986;22.860;2023-05-10T07:04:51;101693.69;;;12.08;100.00
42385;BME280;28042;43.986;22.860;2023-05-10T07:07:17;101699.56;;;12.20;100.00
42385;BME280;28042;43.986;22.860;2023-05-10T07:09:42;101705.88;;;12.21;100.00
42385;BME280;28042;43.986;22.860;2023-05-10T07:12:07;101701.13;;;12.14;100.00
42385;BME280;28042;43.986;22.860;2023-05-10T07:14:33;101700.09;;;12.15;100.00
42385;BME280;28042;43.986;22.860;2023-05-10T07:16:58;101693.50;;;12.25;100.00
42385;BME280;28042;43.986;22.860;2023-05-10T07:19:23;101698.50;;;12.44;100.00
42385;BME280;28042;43.986;22.860;2023-05-10T07:21:49;101702.22;;;12.28;100.00
42385;BME280;28042;43.986;22.860;2023-05-10T07:24:15;101693.22;;;12.20;100.00
42385;BME280;28042;43.986;22.860;2023-05-10T07:26:40;101695.63;;;12.37;100.00
42385;BME280;28042;43.986;22.860;2023-05-10T07:29:05;101700.72;;;12.40;100.00
42385;BME280;28042;43.986;22.860;2023-05-10T07:31:31;101691.25;;;12.51;100.00
42385;BME280;28042;43.986;22.860;2023-05-10T07:33:56;101698.03;;;12.55;100.00
42385;BME280;28042;43.986;22.860;2023-05-10T07:36:22;101698.91;;;12.70;99.82
42385;BME280;28042;43.986;22.860;2023-05-10T07:38:47;101694.81;;;12.66;96.93
42385;BME280;28042;43.986;22.860;2023-05-10T07:41:14;101696.72;;;12.81;95.59
42385;BME280;28042;43.986;22.860;2023-05-10T07:43:39;101681.81;;;13.27;97.71
42385;BME280;28042;43.986;22.860;2023-05-10T07:46:05;101685.56;;;13.41;94.66
42385;BME280;28042;43.986;22.860;2023-05-10T07:48:30;101684.25;;;13.73;92.33
42385;BME280;28042;43.986;22.860;2023-05-10T07:50:56;101685.09;;;13.95;87.03
42385;BME280;28042;43.986;22.860;2023-05-10T07:53:21;101681.53;;;14.16;87.24
42385;BME280;28042;43.986;22.860;2023-05-10T07:55:50;101672.25;;;14.17;83.08
42385;BME280;28042;43.986;22.860;2023-05-10T07:58:15;101671.56;;;14.36;81.50
42385;BME280;28042;43.986;22.860;2023-05-10T08:00:41;101681.00;;;14.55;77.61
42385;BME280;28042;43.986;22.860;2023-05-10T08:03:06;101675.47;;;14.49;78.43
42385;BME280;28042;43.986;22.860;2023-05-10T08:05:31;101677.84;;;14.86;77.19
42385;BME280;28042;43.986;22.860;2023-05-10T08:07:56;101676.13;;;14.85;76.91
42385;BME280;28042;43.986;22.860;2023-05-10T08:10:23;101682.88;;;14.83;75.50
42385;BME280;28042;43.986;22.860;2023-05-10T08:12:49;101677.16;;;15.12;74.09
42385;BME280;28042;43.986;22.860;2023-05-10T08:15:14;101678.53;;;15.43;69.84
42385;BME280;28042;43.986;22.860;2023-05-10T08:17:40;101677.59;;;15.16;68.35
42385;BME280;28042;43.986;22.860;2023-05-10T08:20:06;101679.66;;;15.07;68.60
42385;BME280;28042;43.986;22.860;2023-05-10T08:22:32;101681.59;;;15.13;71.34
42385;BME280;28042;43.986;22.860;2023-05-10T08:24:57;101682.44;;;15.14;67.83
42385;BME280;28042;43.986;22.860;2023-05-10T08:27:22;101682.94;;;14.89;67.66
42385;BME280;28042;43.986;22.860;2023-05-10T08:29:48;101688.00;;;14.86;69.68
42385;BME280;28042;43.986;22.860;2023-05-10T08:32:13;101685.09;;;15.01;67.76
42385;BME280;28042;43.986;22.860;2023-05-10T08:34:39;101687.66;;;15.02;65.57
42385;BME280;28042;43.986;22.860;2023-05-10T08:37:04;101681.31;;;15.02;66.50
42385;BME280;28042;43.986;22.860;2023-05-10T08:39:33;101685.19;;;15.14;68.47
42385;BME280;28042;43.986;22.860;2023-05-10T08:41:59;101686.13;;;15.34;67.66
42385;BME280;28042;43.986;22.860;2023-05-10T08:44:26;101680.13;;;15.65;66.13
42385;BME280;28042;43.986;22.860;2023-05-10T08:46:51;101677.66;;;15.90;66.49
42385;BME280;28042;43.986;22.860;2023-05-10T08:49:18;101674.28;;;16.28;65.05
42385;BME280;28042;43.986;22.860;2023-05-10T08:51:47;101666.88;;;16.42;62.69
42385;BME280;28042;43.986;22.860;2023-05-10T08:54:14;101677.03;;;16.15;60.46
42385;BME280;28042;43.986;22.860;2023-05-10T08:56:40;101677.06;;;16.28;60.47
42385;BME280;28042;43.986;22.860;2023-05-10T08:59:06;101667.28;;;16.38;61.54
42385;BME280;28042;43.986;22.860;2023-05-10T09:01:31;101671.13;;;16.71;61.43
42385;BME280;28042;43.986;22.860;2023-05-10T09:03:56;101668.91;;;17.06;59.75
42385;BME280;28042;43.986;22.860;2023-05-10T09:06:23;101672.16;;;17.47;59.31
42385;BME280;28042;43.986;22.860;2023-05-10T09:08:48;101662.97;;;17.53;56.32
42385;BME280;28042;43.986;22.860;2023-05-10T09:11:14;101663.16;;;17.59;60.41
42385;BME280;28042;43.986;22.860;2023-05-10T09:13:40;101665.59;;;17.80;59.02
42385;BME280;28042;43.986;22.860;2023-05-10T09:16:06;101665.25;;;17.63;57.70
42385;BME280;28042;43.986;22.860;2023-05-10T09:18:32;101659.84;;;18.13;55.60
42385;BME280;28042;43.986;22.860;2023-05-10T09:20:57;101652.81;;;18.17;52.72
42385;BME280;28042;43.986;22.860;2023-05-10T09:23:22;101660.09;;;18.36;54.14
42385;BME280;28042;43.986;22.860;2023-05-10T09:26:01;101661.78;;;18.38;53.05
42385;BME280;28042;43.986;22.860;2023-05-10T09:28:28;101657.84;;;18.52;53.52
42385;BME280;28042;43.986;22.860;2023-05-10T09:30:56;101665.03;;;18.03;52.04
42385;BME280;28042;43.986;22.860;2023-05-10T09:33:21;101660.94;;;17.80;51.12
42385;BME280;28042;43.986;22.860;2023-05-10T09:35:47;101671.47;;;17.52;53.46
42385;BME280;28042;43.986;22.860;2023-05-10T09:38:16;101653.47;;;17.43;51.90
42385;BME280;28042;43.986;22.860;2023-05-10T09:40:41;101658.72;;;17.06;53.61
42385;BME280;28042;43.986;22.860;2023-05-10T09:43:19;101640.44;;;17.18;55.54
42385;BME280;28042;43.986;22.860;2023-05-10T09:45:44;101651.66;;;17.23;55.12
42385;BME280;28042;43.986;22.860;2023-05-10T09:48:13;101651.84;;;17.29;57.01
42385;BME280;28042;43.986;22.860;2023-05-10T09:50:38;101642.53;;;17.23;55.57
42385;BME280;28042;43.986;22.860;2023-05-10T09:53:03;101645.09;;;17.18;54.45
42385;BME280;28042;43.986;22.860;2023-05-10T09:58:04;101641.94;;;17.59;55.91
42385;BME280;28042;43.986;22.860;2023-05-10T10:00:35;101639.59;;;17.11;58.06
42385;BME280;28042;43.986;22.860;2023-05-10T10:03:01;101641.81;;;16.96;58.47
42385;BME280;28042;43.986;22.860;2023-05-10T10:05:30;101636.56;;;17.33;56.91
42385;BME280;28042;43.986;22.860;2023-05-10T10:07:59;101625.91;;;17.43;59.20
42385;BME280;28042;43.986;22.860;2023-05-10T10:10:25;101630.72;;;17.09;57.14
42385;BME280;28042;43.986;22.860;2023-05-10T10:12:51;101615.00;;;17.93;56.10
42385;BME280;28042;43.986;22.860;2023-05-10T10:15:17;101622.84;;;17.89;55.85
42385;BME280;28042;43.986;22.860;2023-05-10T10:17:42;101618.16;;;17.58;56.06
42385;BME280;28042;43.986;22.860;2023-05-10T10:20:08;101616.91;;;17.54;55.40
42385;BME280;28042;43.986;22.860;2023-05-10T10:22:34;101606.72;;;18.18;57.75
42385;BME280;28042;43.986;22.860;2023-05-10T10:24:59;101603.72;;;18.19;55.75
42385;BME280;28042;43.986;22.860;2023-05-10T10:27:32;101598.75;;;18.03;54.30
42385;BME280;28042;43.986;22.860;2023-05-10T10:30:13;101602.44;;;18.40;54.84
42385;BME280;28042;43.986;22.860;2023-05-10T10:32:46;101598.53;;;18.73;52.84
42385;BME280;28042;43.986;22.860;2023-05-10T10:35:18;101596.63;;;18.48;51.96
42385;BME280;28042;43.986;22.860;2023-05-10T10:37:44;101589.34;;;18.54;55.00
42385;BME280;28042;43.986;22.860;2023-05-10T10:40:23;101588.91;;;18.57;52.93
42385;BME280;28042;43.986;22.860;2023-05-10T10:42:49;101585.19;;;18.26;51.38
42385;BME280;28042;43.986;22.860;2023-05-10T10:45:18;101585.66;;;18.42;53.25
42385;BME280;28042;43.986;22.860;2023-05-10T10:47:44;101581.97;;;18.48;53.15
42385;BME280;28042;43.986;22.860;2023-05-10T10:50:10;101585.56;;;18.73;52.57
42385;BME280;28042;43.986;22.860;2023-05-10T10:52:38;101582.88;;;18.67;51.83
42385;BME280;28042;43.986;22.860;2023-05-10T10:57:35;101580.31;;;18.83;51.14
42385;BME280;28042;43.986;22.860;2023-05-10T11:00:20;101582.69;;;18.43;50.57
42385;BME280;28042;43.986;22.860;2023-05-10T11:10:36;101568.97;;;18.91;49.95
42385;BME280;28042;43.986;22.860;2023-05-10T11:15:31;101563.13;;;18.81;49.46
42385;BME280;28042;43.986;22.860;2023-05-10T11:17:57;101570.63;;;18.92;48.17
42385;BME280;28042;43.986;22.860;2023-05-10T11:20:22;101569.69;;;18.69;48.98
42385;BME280;28042;43.986;22.860;2023-05-10T11:22:53;101562.03;;;18.64;47.68
42385;BME280;28042;43.986;22.860;2023-05-10T11:25:19;101563.31;;;18.68;48.93
42385;BME280;28042;43.986;22.860;2023-05-10T11:27:44;101558.66;;;18.99;48.47
42385;BME280;28042;43.986;22.860;2023-05-10T11:30:10;101558.19;;;19.02;46.92
42385;BME280;28042;43.986;22.860;2023-05-10T11:32:39;101550.09;;;19.48;48.46
42385;BME280;28042;43.986;22.860;2023-05-10T11:35:08;101544.56;;;19.90;47.02
42385;BME280;28042;43.986;22.860;2023-05-10T11:37:34;101550.00;;;20.09;44.58
42385;BME280;28042;43.986;22.860;2023-05-10T11:40:00;101547.22;;;20.20;46.08
42385;BME280;28042;43.986;22.860;2023-05-10T11:42:25;101541.06;;;19.95;45.38
42385;BME280;28042;43.986;22.860;2023-05-10T11:44:52;101536.47;;;19.89;44.57
42385;BME280;28042;43.986;22.860;2023-05-10T11:47:17;101539.72;;;19.97;44.29
42385;BME280;28042;43.986;22.860;2023-05-10T11:49:43;101536.00;;;20.03;44.68
42385;BME280;28042;43.986;22.860;2023-05-10T11:52:08;101539.63;;;19.92;45.10
42385;BME280;28042;43.986;22.860;2023-05-10T11:54:36;101534.13;;;19.62;44.17
42385;BME280;28042;43.986;22.860;2023-05-10T11:57:01;101528.88;;;19.31;44.70
42385;BME280;28042;43.986;22.860;2023-05-10T11:59:26;101536.97;;;19.14;44.89
42385;BME280;28042;43.986;22.860;2023-05-10T12:01:52;101537.78;;;19.03;44.35
42385;BME280;28042;43.986;22.860;2023-05-10T12:04:17;101525.59;;;19.22;45.25
42385;BME280;28042;43.986;22.860;2023-05-10T12:06:43;101525.84;;;19.32;44.50
42385;BME280;28042;43.986;22.860;2023-05-10T12:09:09;101518.56;;;19.19;45.01
42385;BME280;28042;43.986;22.860;2023-05-10T12:11:37;101519.03;;;19.05;45.92
42385;BME280;28042;43.986;22.860;2023-05-10T12:14:03;101521.28;;;18.96;45.74
42385;BME280;28042;43.986;22.860;2023-05-10T12:16:29;101514.75;;;18.90;45.96
42385;BME280;28042;43.986;22.860;2023-05-10T12:18:58;101510.13;;;19.03;44.84
42385;BME280;28042;43.986;22.860;2023-05-10T12:21:24;101512.00;;;19.20;45.81
42385;BME280;28042;43.986;22.860;2023-05-10T12:23:51;101509.00;;;19.34;46.63
42385;BME280;28042;43.986;22.860;2023-05-10T12:26:16;101500.38;;;19.54;44.68
42385;BME280;28042;43.986;22.860;2023-05-10T12:28:42;101498.88;;;19.58;44.39
42385;BME280;28042;43.986;22.860;2023-05-10T12:31:07;101495.88;;;19.71;43.68
42385;BME280;28042;43.986;22.860;2023-05-10T12:33:42;101490.34;;;19.71;44.29
42385;BME280;28042;43.986;22.860;2023-05-10T12:36:09;101487.22;;;20.02;43.23
42385;BME280;28042;43.986;22.860;2023-05-10T12:41:11;101481.91;;;19.89;42.49
42385;BME280;28042;43.986;22.860;2023-05-10T12:43:37;101479.53;;;19.81;43.45
42385;BME280;28042;43.986;22.860;2023-05-10T12:46:04;101473.88;;;19.76;43.08
42385;BME280;28042;43.986;22.860;2023-05-10T12:48:29;101480.41;;;19.52;44.07
42385;BME280;28042;43.986;22.860;2023-05-10T12:50:56;101470.13;;;19.70;43.29
42385;BME280;28042;43.986;22.860;2023-05-10T12:53:21;101471.16;;;19.46;43.03
42385;BME280;28042;43.986;22.860;2023-05-10T12:55:47;101466.66;;;19.33;43.61
42385;BME280;28042;43.986;22.860;2023-05-10T12:58:12;101471.69;;;19.13;43.17
42385;BME280;28042;43.986;22.860;2023-05-10T13:00:37;101470.63;;;18.66;44.64
42385;BME280;28042;43.986;22.860;2023-05-10T13:03:03;101469.66;;;18.90;44.82
42385;BME280;28042;43.986;22.860;2023-05-10T13:05:30;101464.63;;;18.99;44.83
42385;BME280;28042;43.986;22.860;2023-05-10T13:07:55;101464.34;;;19.18;44.43
42385;BME280;28042;43.986;22.860;2023-05-10T13:10:21;101450.56;;;19.30;42.81